Time;durP1;ratioP1;P1;durP2;ratioP2;P2;SDS_P1;SDS_P2;PMS_P1;PMS_P2;Temp;Humidity;BMP_temperature;BMP_pressure;BME280_temperature;BME280_humidity;BME280_pressure;Samples;Min_cycle;Max_cycle;Signal;HPM_P1;HPM_P2
2021/08/17 00:00:49;;;;;;;8.38;2.92;;;;;;;;;;5076861;28;20464;-76
2021/08/17 00:03:17;;;;;;;4.95;2.05;;;;;;;;;;5076847;28;20020;-76
2021/08/17 00:05:43;;;;;;;6.43;3.55;;;;;;;;;;5076880;28;20025;-81
2021/08/17 00:08:09;;;;;;;8.75;4.13;;;;;;;;;;5076704;28;20032;-78
2021/08/17 00:10:35;;;;;;;6.85;3.10;;;;;;;;;;5076717;28;20025;-76
2021/08/17 00:13:01;;;;;;;6.70;4.22;;;;;;;;;;5076411;28;20024;-77
2021/08/17 00:15:28;;;;;;;5.13;2.78;;;;;;;;;;5076296;28;20392;-76
2021/08/17 00:17:54;;;;;;;7.00;3.65;;;;;;;;;;5076703;28;20056;-78
2021/08/17 00:20:20;;;;;;;6.97;3.38;;;;;;;;;;5075073;28;20534;-76
2021/08/17 00:22:46;;;;;;;6.32;3.13;;;;;;;;;;5076596;28;20024;-76
2021/08/17 00:25:12;;;;;;;8.10;3.97;;;;;;;;;;5076057;28;20123;-76
2021/08/17 00:27:37;;;;;;;6.68;4.20;;;;;;;;;;5076274;28;20028;-77
2021/08/17 00:30:08;;;;;;;5.63;2.58;;;;;;;;;;5076680;28;20025;-80
2021/08/17 00:32:34;;;;;;;8.48;3.95;;;;;;;;;;5076606;28;20028;-77
2021/08/17 00:34:59;;;;;;;8.95;3.58;;;;;;;;;;5076147;28;20028;-76
2021/08/17 00:37:26;;;;;;;6.07;3.67;;;;;;;;;;5076099;28;20032;-76
2021/08/17 00:39:51;;;;;;;5.43;2.47;;;;;;;;;;5076088;28;20025;-77
2021/08/17 00:42:17;;;;;;;6.10;2.50;;;;;;;;;;5076044;28;20031;-76
2021/08/17 00:44:43;;;;;;;5.13;2.60;;;;;;;;;;5076509;28;20484;-76
2021/08/17 00:47:11;;;;;;;6.72;3.72;;;;;;;;;;5075509;28;20036;-75
2021/08/17 00:49:36;;;;;;;5.00;2.75;;;;;;;;;;5076128;28;20032;-76
2021/08/17 00:52:07;;;;;;;6.35;2.55;;;;;;;;;;5075811;28;20020;-75
2021/08/17 00:54:45;;;;;;;5.85;2.47;;;;;;;;;;5076079;28;20082;-76
2021/08/17 00:57:12;;;;;;;5.88;2.80;;;;;;;;;;5076098;28;20028;-80
2021/08/17 00:59:38;;;;;;;8.05;5.07;;;;;;;;;;5075964;28;20423;-80
2021/08/17 01:02:04;;;;;;;7.22;4.10;;;;;;;;;;5075630;28;20078;-76
2021/08/17 01:04:31;;;;;;;7.22;4.45;;;;;;;;;;5075654;28;20024;-76
2021/08/17 01:06:57;;;;;;;7.88;3.63;;;;;;;;;;5075591;28;20064;-79
2021/08/17 01:09:23;;;;;;;4.88;2.38;;;;;;;;;;5075539;28;20051;-76
2021/08/17 01:11:49;;;;;;;7.15;2.35;;;;;;;;;;5075553;28;20025;-76
2021/08/17 01:14:18;;;;;;;6.43;2.80;;;;;;;;;;5075359;28;20497;-76
2021/08/17 01:16:43;;;;;;;6.05;3.25;;;;;;;;;;5075485;28;20031;-76
2021/08/17 01:19:12;;;;;;;5.22;3.45;;;;;;;;;;5075379;28;20024;-80
2021/08/17 01:21:38;;;;;;;5.53;2.70;;;;;;;;;;5075322;28;20024;-76
2021/08/17 01:24:04;;;;;;;6.28;2.97;;;;;;;;;;5075319;28;20031;-76
2021/08/17 01:26:30;;;;;;;5.75;2.85;;;;;;;;;;5074918;28;20504;-76
2021/08/17 01:28:55;;;;;;;7.00;3.90;;;;;;;;;;5075196;28;20078;-83
2021/08/17 01:31:21;;;;;;;4.82;2.15;;;;;;;;;;5075157;28;20025;-76
2021/08/17 01:33:46;;;;;;;6.78;4.03;;;;;;;;;;5075066;28;20032;-76
2021/08/17 01:36:12;;;;;;;5.65;2.55;;;;;;;;;;5074981;28;20385;-76
2021/08/17 01:38:48;;;;;;;6.07;3.17;;;;;;;;;;5075185;28;20100;-76
2021/08/17 01:41:15;;;;;;;6.22;3.53;;;;;;;;;;5075107;28;20028;-77
2021/08/17 01:43:42;;;;;;;8.63;4.65;;;;;;;;;;5074916;28;20464;-76
2021/08/17 01:46:08;;;;;;;6.72;3.30;;;;;;;;;;5074782;28;20104;-76
2021/08/17 01:48:34;;;;;;;5.93;2.30;;;;;;;;;;5074737;28;20380;-76
2021/08/17 01:51:01;;;;;;;5.97;2.63;;;;;;;;;;5074644;28;20024;-76
2021/08/17 01:53:28;;;;;;;5.85;3.50;;;;;;;;;;5074632;28;20023;-76
2021/08/17 01:55:54;;;;;;;6.88;3.15;;;;;;;;;;5074455;28;20035;-76
2021/08/17 01:58:21;;;;;;;6.57;3.00;;;;;;;;;;5074267;28;20105;-76
2021/08/17 02:00:47;;;;;;;6.50;4.15;;;;;;;;;;5074275;28;20458;-75
2021/08/17 02:03:13;;;;;;;7.63;2.30;;;;;;;;;;5074468;28;20021;-76
2021/08/17 02:05:38;;;;;;;5.22;2.40;;;;;;;;;;5074573;28;20476;-75
2021/08/17 02:08:05;;;;;;;5.32;2.55;;;;;;;;;;5074542;28;20422;-75
2021/08/17 02:10:31;;;;;;;5.85;2.42;;;;;;;;;;5074314;28;20100;-75
2021/08/17 02:12:57;;;;;;;5.22;2.33;;;;;;;;;;5074240;28;20465;-76
2021/08/17 02:15:23;;;;;;;10.05;4.18;;;;;;;;;;5072951;28;20039;-76
2021/08/17 02:17:48;;;;;;;5.38;3.00;;;;;;;;;;5074175;28;20431;-76
2021/08/17 02:20:14;;;;;;;6.70;2.08;;;;;;;;;;5074350;28;20025;-79
2021/08/17 02:22:40;;;;;;;8.88;4.00;;;;;;;;;;5074316;28;20025;-76
2021/08/17 02:25:07;;;;;;;5.90;2.63;;;;;;;;;;5073869;28;20048;-76
2021/08/17 02:27:34;;;;;;;10.63;4.78;;;;;;;;;;5073969;28;20039;-76
2021/08/17 02:30:01;;;;;;;8.02;2.53;;;;;;;;;;5073977;28;20479;-77
2021/08/17 02:32:26;;;;;;;5.47;3.22;;;;;;;;;;5074108;28;20055;-76
2021/08/17 02:34:52;;;;;;;6.55;3.63;;;;;;;;;;5073845;28;20056;-76
2021/08/17 02:37:17;;;;;;;6.18;3.25;;;;;;;;;;5073877;28;20024;-76
2021/08/17 02:39:43;;;;;;;4.85;2.38;;;;;;;;;;5073885;28;20511;-76
2021/08/17 02:42:09;;;;;;;6.70;3.22;;;;;;;;;;5073763;28;20104;-76
2021/08/17 02:44:34;;;;;;;6.43;2.33;;;;;;;;;;5073775;28;20036;-77
2021/08/17 02:47:00;;;;;;;5.57;2.20;;;;;;;;;;5073715;28;20159;-82
2021/08/17 02:49:26;;;;;;;5.50;2.55;;;;;;;;;;5073722;28;20031;-76
2021/08/17 02:51:51;;;;;;;6.40;3.80;;;;;;;;;;5073619;28;20436;-76
2021/08/17 02:54:17;;;;;;;4.53;2.20;;;;;;;;;;5073586;28;20392;-75
2021/08/17 02:56:43;;;;;;;8.13;4.07;;;;;;;;;;5073627;28;20058;-76
2021/08/17 02:59:08;;;;;;;5.78;2.47;;;;;;;;;;5073681;28;20070;-76
2021/08/17 03:01:34;;;;;;;13.80;4.50;;;;;;;;;;5073578;28;20032;-76
2021/08/17 03:04:00;;;;;;;5.03;2.45;;;;;;;;;;5073505;28;20024;-83
2021/08/17 03:06:25;;;;;;;6.63;4.47;;;;;;;;;;5073532;28;20112;-76
2021/08/17 03:08:51;;;;;;;5.85;2.42;;;;;;;;;;5073454;28;20035;-76
2021/08/17 03:11:16;;;;;;;5.40;2.47;;;;;;;;;;5073266;28;20031;-76
2021/08/17 03:13:42;;;;;;;5.78;3.92;;;;;;;;;;5073437;28;20021;-76
2021/08/17 03:16:08;;;;;;;6.43;4.15;;;;;;;;;;5073278;28;20107;-76
2021/08/17 03:18:33;;;;;;;6.25;2.42;;;;;;;;;;5073333;28;20017;-76
2021/08/17 03:20:59;;;;;;;7.45;3.17;;;;;;;;;;5073561;28;20020;-79
2021/08/17 03:23:27;;;;;;;7.45;3.42;;;;;;;;;;5073494;28;20031;-76
2021/08/17 03:25:55;;;;;;;12.65;2.80;;;;;;;;;;5073311;28;20040;-76
2021/08/17 03:28:21;;;;;;;6.75;2.47;;;;;;;;;;5073210;28;20112;-75
2021/08/17 03:30:47;;;;;;;13.02;4.32;;;;;;;;;;5073243;28;20066;-76
2021/08/17 03:33:12;;;;;;;7.47;2.63;;;;;;;;;;5073278;28;20028;-76
2021/08/17 03:35:38;;;;;;;9.80;3.72;;;;;;;;;;5073373;28;20025;-75
2021/08/17 03:38:03;;;;;;;9.55;3.25;;;;;;;;;;5073438;28;20087;-75
2021/08/17 03:40:29;;;;;;;9.35;2.65;;;;;;;;;;5073437;28;20023;-76
2021/08/17 03:42:55;;;;;;;5.45;2.55;;;;;;;;;;5073590;28;20024;-77
2021/08/17 03:45:22;;;;;;;6.68;2.67;;;;;;;;;;5073099;28;20017;-75
2021/08/17 03:47:50;;;;;;;7.45;2.70;;;;;;;;;;5073079;28;20085;-76
2021/08/17 03:50:16;;;;;;;7.00;3.97;;;;;;;;;;5073052;28;20024;-76
2021/08/17 03:52:43;;;;;;;8.70;2.95;;;;;;;;;;5073582;28;20023;-76
2021/08/17 03:55:09;;;;;;;7.30;4.40;;;;;;;;;;5072968;28;20033;-78
2021/08/17 03:57:35;;;;;;;7.78;3.88;;;;;;;;;;5072990;28;20035;-73
2021/08/17 04:00:03;;;;;;;7.07;4.38;;;;;;;;;;5072887;28;20029;-74
2021/08/17 04:02:29;;;;;;;9.02;3.47;;;;;;;;;;5072967;28;20381;-74
2021/08/17 04:04:54;;;;;;;9.80;4.90;;;;;;;;;;5073115;28;20033;-82
2021/08/17 04:07:20;;;;;;;6.47;3.67;;;;;;;;;;5072850;28;20029;-74
2021/08/17 04:09:45;;;;;;;5.72;2.17;;;;;;;;;;5072899;28;20082;-74
2021/08/17 04:12:11;;;;;;;6.53;2.90;;;;;;;;;;5072881;28;20029;-74
2021/08/17 04:14:37;;;;;;;7.35;3.78;;;;;;;;;;5073035;28;20040;-74
2021/08/17 04:17:03;;;;;;;6.95;2.65;;;;;;;;;;5072739;28;20078;-75
2021/08/17 04:19:28;;;;;;;6.03;2.67;;;;;;;;;;5072803;28;20397;-73
2021/08/17 04:21:54;;;;;;;7.25;4.10;;;;;;;;;;5073207;28;20039;-83
2021/08/17 04:24:19;;;;;;;6.35;2.63;;;;;;;;;;5076364;28;20099;-73
2021/08/17 04:26:45;;;;;;;7.38;3.88;;;;;;;;;;5076226;28;20040;-74
2021/08/17 04:29:11;;;;;;;6.10;2.70;;;;;;;;;;5076309;28;20103;-78
2021/08/17 04:31:37;;;;;;;7.55;2.72;;;;;;;;;;5076281;28;20040;-79
2021/08/17 04:34:03;;;;;;;7.45;3.70;;;;;;;;;;5076397;28;20020;-85
2021/08/17 04:36:29;;;;;;;5.68;2.58;;;;;;;;;;5076005;28;20043;-73
2021/08/17 04:38:54;;;;;;;6.90;3.92;;;;;;;;;;5076273;28;20017;-83
2021/08/17 04:41:20;;;;;;;6.00;3.03;;;;;;;;;;5076159;28;20020;-73
2021/08/17 04:43:46;;;;;;;7.28;5.18;;;;;;;;;;5076166;28;20035;-73
2021/08/17 04:46:12;;;;;;;6.90;3.17;;;;;;;;;;5076186;28;20051;-75
2021/08/17 04:48:38;;;;;;;5.70;3.08;;;;;;;;;;5075935;28;20063;-74
2021/08/17 04:51:04;;;;;;;6.18;3.92;;;;;;;;;;5076344;28;20112;-74
2021/08/17 04:53:29;;;;;;;8.63;2.80;;;;;;;;;;5076066;28;20017;-74
2021/08/17 04:55:56;;;;;;;7.57;2.45;;;;;;;;;;5075684;28;20027;-74
2021/08/17 04:58:21;;;;;;;6.75;3.28;;;;;;;;;;5075994;28;20033;-74
2021/08/17 05:00:48;;;;;;;5.13;2.60;;;;;;;;;;5075926;28;20035;-76
2021/08/17 05:03:14;;;;;;;9.27;3.53;;;;;;;;;;5075660;28;20036;-73
2021/08/17 05:05:40;;;;;;;6.00;3.50;;;;;;;;;;5075640;28;20099;-75
2021/08/17 05:08:10;;;;;;;5.72;2.75;;;;;;;;;;5075542;28;20063;-81
2021/08/17 05:10:36;;;;;;;5.90;3.20;;;;;;;;;;5075772;28;20056;-79
2021/08/17 05:13:03;;;;;;;5.40;3.28;;;;;;;;;;5075460;28;20093;-88
2021/08/17 05:15:30;;;;;;;6.63;3.55;;;;;;;;;;5075336;28;20036;-75
2021/08/17 05:17:57;;;;;;;7.88;4.47;;;;;;;;;;5074127;28;20404;-75
2021/08/17 05:20:23;;;;;;;7.25;3.28;;;;;;;;;;5074385;28;20527;-75
2021/08/17 05:22:48;;;;;;;7.10;3.20;;;;;;;;;;5075271;28;20159;-85
2021/08/17 05:25:15;;;;;;;6.47;3.17;;;;;;;;;;5074981;28;20041;-76
2021/08/17 05:27:43;;;;;;;7.40;3.92;;;;;;;;;;5075251;28;20078;-75
2021/08/17 05:30:09;;;;;;;7.80;2.85;;;;;;;;;;5075122;28;20052;-75
2021/08/17 05:32:36;;;;;;;5.53;2.72;;;;;;;;;;5075114;28;20024;-77
2021/08/17 05:35:02;;;;;;;8.68;3.25;;;;;;;;;;5073745;28;20116;-75
2021/08/17 05:37:28;;;;;;;24.13;4.38;;;;;;;;;;5074963;28;20056;-77
2021/08/17 05:39:53;;;;;;;10.32;3.17;;;;;;;;;;5074986;28;20052;-76
2021/08/17 05:42:19;;;;;;;8.60;2.90;;;;;;;;;;5074906;28;20375;-75
2021/08/17 05:44:45;;;;;;;6.97;3.03;;;;;;;;;;5074920;28;20075;-76
2021/08/17 05:47:12;;;;;;;7.30;3.13;;;;;;;;;;5074705;28;20030;-74
2021/08/17 05:49:38;;;;;;;7.75;3.10;;;;;;;;;;5074844;28;20492;-75
2021/08/17 05:52:06;;;;;;;8.45;3.45;;;;;;;;;;5074686;28;20028;-76
2021/08/17 05:54:32;;;;;;;7.75;2.97;;;;;;;;;;5073369;28;20021;-76
2021/08/17 05:56:58;;;;;;;7.45;3.13;;;;;;;;;;5073277;28;20115;-75
2021/08/17 05:59:28;;;;;;;8.57;2.95;;;;;;;;;;5074562;28;20020;-75
2021/08/17 06:01:57;;;;;;;;;;;;;;;;;;5074911;28;20047;-74
2021/08/17 06:04:23;;;;;;;7.18;2.75;;;;;;;;;;5074639;28;19912;-76
2021/08/17 06:06:49;;;;;;;9.27;2.65;;;;;;;;;;5074687;28;20024;-76
2021/08/17 06:09:15;;;;;;;5.38;2.45;;;;;;;;;;5074382;28;20107;-75
2021/08/17 06:11:42;;;;;;;8.82;2.83;;;;;;;;;;5074571;28;20021;-75
2021/08/17 06:14:08;;;;;;;5.47;2.42;;;;;;;;;;5074300;28;20024;-76
2021/08/17 06:16:33;;;;;;;5.38;2.50;;;;;;;;;;5072862;28;20028;-80
2021/08/17 06:18:59;;;;;;;7.05;2.00;;;;;;;;;;5072911;28;20028;-75
2021/08/17 06:21:26;;;;;;;7.35;2.50;;;;;;;;;;5074362;28;20020;-75
2021/08/17 06:23:52;;;;;;;8.30;2.03;;;;;;;;;;5074055;28;20023;-75
2021/08/17 06:26:17;;;;;;;7.03;2.65;;;;;;;;;;5073803;28;20052;-75
2021/08/17 06:28:44;;;;;;;6.60;2.58;;;;;;;;;;5074511;28;20059;-77
2021/08/17 06:31:12;;;;;;;5.97;2.00;;;;;;;;;;5073977;28;20099;-75
2021/08/17 06:33:38;;;;;;;7.05;2.30;;;;;;;;;;5073918;28;20024;-75
2021/08/17 06:36:03;;;;;;;7.32;2.35;;;;;;;;;;5073868;28;20029;-74
2021/08/17 06:38:29;;;;;;;6.47;5.13;;;;;;;;;;5073722;28;20017;-76
2021/08/17 06:40:55;;;;;;;5.35;1.73;;;;;;;;;;5073788;28;20043;-77
2021/08/17 06:43:22;;;;;;;4.72;1.67;;;;;;;;;;5073788;28;20043;-75
2021/08/17 06:45:48;;;;;;;6.85;5.53;;;;;;;;;;5073288;28;20056;-79
2021/08/17 06:48:14;;;;;;;9.45;3.05;;;;;;;;;;5073705;28;20063;-75
2021/08/17 06:50:39;;;;;;;6.60;1.95;;;;;;;;;;5073585;28;20036;-75
2021/08/17 06:53:05;;;;;;;5.68;2.05;;;;;;;;;;5072315;28;20029;-76
2021/08/17 06:55:31;;;;;;;8.32;4.75;;;;;;;;;;5073557;28;20024;-75
2021/08/17 06:57:56;;;;;;;5.20;1.98;;;;;;;;;;5073597;28;20056;-77
2021/08/17 07:00:22;;;;;;;9.65;4.20;;;;;;;;;;5073644;28;20495;-75
2021/08/17 07:02:48;;;;;;;6.95;2.20;;;;;;;;;;5073611;28;20036;-77
2021/08/17 07:05:14;;;;;;;8.93;3.50;;;;;;;;;;5073508;28;20430;-75
2021/08/17 07:07:39;;;;;;;8.52;4.32;;;;;;;;;;5073414;28;20392;-86
2021/08/17 07:10:06;;;;;;;6.32;2.95;;;;;;;;;;5073407;28;20032;-76
2021/08/17 07:12:32;;;;;;;8.45;3.55;;;;;;;;;;5073728;28;20103;-75
2021/08/17 07:14:58;;;;;;;6.75;4.93;;;;;;;;;;5072223;28;20120;-75
2021/08/17 07:17:23;;;;;;;10.02;3.58;;;;;;;;;;5072302;28;20060;-76
2021/08/17 07:19:49;;;;;;;7.90;5.45;;;;;;;;;;5073372;28;20104;-76
2021/08/17 07:22:14;;;;;;;6.25;2.03;;;;;;;;;;5072278;28;20029;-76
2021/08/17 07:24:40;;;;;;;8.18;2.00;;;;;;;;;;5073189;28;20017;-87
2021/08/17 07:27:06;;;;;;;7.00;2.45;;;;;;;;;;5073365;28;20392;-83
2021/08/17 07:29:31;;;;;;;11.32;3.22;;;;;;;;;;5072118;28;20029;-75
2021/08/17 07:31:57;;;;;;;8.93;3.10;;;;;;;;;;5073457;28;20052;-76
2021/08/17 07:34:22;;;;;;;6.03;1.92;;;;;;;;;;5073237;28;20031;-76
2021/08/17 07:36:48;;;;;;;6.18;2.25;;;;;;;;;;5073615;28;20031;-76
2021/08/17 07:39:16;;;;;;;7.63;1.80;;;;;;;;;;5073521;28;20032;-76
2021/08/17 07:41:42;;;;;;;8.35;2.22;;;;;;;;;;5073820;28;20461;-78
2021/08/17 07:44:08;;;;;;;8.55;2.30;;;;;;;;;;5073179;28;20104;-81
2021/08/17 07:46:34;;;;;;;6.95;1.33;;;;;;;;;;5073329;28;20063;-76
2021/08/17 07:49:00;;;;;;;5.45;1.67;;;;;;;;;;5073099;28;20070;-74
2021/08/17 07:51:27;;;;;;;5.82;1.75;;;;;;;;;;5072996;28;20421;-75
2021/08/17 07:53:53;;;;;;;5.43;1.42;;;;;;;;;;5073050;28;20031;-75
2021/08/17 07:56:19;;;;;;;6.57;2.42;;;;;;;;;;5073824;28;20364;-75
2021/08/17 07:58:45;;;;;;;4.47;2.05;;;;;;;;;;5076157;28;20373;-76
2021/08/17 08:01:12;;;;;;;6.65;1.42;;;;;;;;;;5075619;28;20027;-84
2021/08/17 08:03:40;;;;;;;3.80;1.50;;;;;;;;;;5076845;28;20028;-76
2021/08/17 08:06:09;;;;;;;4.60;1.20;;;;;;;;;;5076783;28;20464;-76
2021/08/17 08:08:35;;;;;;;5.35;1.25;;;;;;;;;;5076727;28;20468;-81
2021/08/17 08:11:02;;;;;;;6.15;1.40;;;;;;;;;;5075499;28;20412;-75
2021/08/17 08:13:28;;;;;;;4.32;1.42;;;;;;;;;;5076658;28;20028;-78
2021/08/17 08:15:54;;;;;;;7.43;2.38;;;;;;;;;;5076791;28;20029;-75
2021/08/17 08:18:20;;;;;;;3.95;2.03;;;;;;;;;;5076559;28;20027;-76
2021/08/17 08:20:46;;;;;;;6.03;1.90;;;;;;;;;;5076515;28;20031;-75
2021/08/17 08:23:12;;;;;;;7.30;1.23;;;;;;;;;;5076396;28;20147;-75
2021/08/17 08:25:40;;;;;;;3.85;1.20;;;;;;;;;;5076412;28;20055;-82
2021/08/17 08:28:06;;;;;;;19.25;2.55;;;;;;;;;;5075340;28;20073;-75
2021/08/17 08:30:31;;;;;;;6.20;2.35;;;;;;;;;;5075258;28;20456;-76
2021/08/17 08:32:57;;;;;;;4.35;1.58;;;;;;;;;;5076342;28;20031;-75
2021/08/17 08:35:22;;;;;;;7.93;1.40;;;;;;;;;;5076335;28;20107;-75
2021/08/17 08:37:48;;;;;;;7.32;1.45;;;;;;;;;;5076155;28;20025;-75
2021/08/17 08:40:14;;;;;;;4.70;1.55;;;;;;;;;;5076156;28;20017;-78
2021/08/17 08:42:40;;;;;;;6.22;1.60;;;;;;;;;;5076554;28;20082;-75
2021/08/17 08:45:06;;;;;;;8.95;1.98;;;;;;;;;;5076203;28;20024;-79
2021/08/17 08:47:37;;;;;;;4.00;1.30;;;;;;;;;;5075988;28;20111;-75
2021/08/17 08:50:03;;;;;;;5.60;2.17;;;;;;;;;;5076000;28;20025;-76
2021/08/17 08:52:29;;;;;;;6.13;2.15;;;;;;;;;;5075875;28;20088;-76
2021/08/17 08:54:55;;;;;;;6.05;2.15;;;;;;;;;;5076145;28;20465;-76
2021/08/17 08:57:21;;;;;;;5.25;2.40;;;;;;;;;;5075814;28;20468;-76
2021/08/17 08:59:46;;;;;;;5.80;1.25;;;;;;;;;;5075757;28;20066;-75
2021/08/17 09:02:17;;;;;;;4.57;1.20;;;;;;;;;;5075712;28;20035;-75
2021/08/17 09:04:56;;;;;;;5.65;3.13;;;;;;;;;;5075695;28;20029;-75
2021/08/17 09:07:42;;;;;;;4.95;1.48;;;;;;;;;;5076038;28;20021;-75
2021/08/17 09:10:17;;;;;;;5.45;2.20;;;;;;;;;;5075432;28;20108;-76
2021/08/17 09:12:44;;;;;;;3.83;1.63;;;;;;;;;;5075869;28;20022;-78
2021/08/17 09:15:13;;;;;;;5.70;2.30;;;;;;;;;;5075444;28;20400;-76
2021/08/17 09:17:40;;;;;;;7.70;2.83;;;;;;;;;;5075590;28;20152;-79
2021/08/17 09:20:08;;;;;;;6.43;1.70;;;;;;;;;;5075444;28;20026;-82
2021/08/17 09:22:34;;;;;;;4.15;1.73;;;;;;;;;;5075503;28;20024;-77
2021/08/17 09:25:02;;;;;;;7.43;2.17;;;;;;;;;;5075146;28;20044;-78
2021/08/17 09:27:36;;;;;;;9.40;1.83;;;;;;;;;;5075289;28;20039;-77
2021/08/17 09:30:09;;;;;;;7.00;1.40;;;;;;;;;;5075590;28;20111;-77
2021/08/17 09:32:49;;;;;;;5.50;2.30;;;;;;;;;;5075288;28;20024;-77
2021/08/17 09:35:18;;;;;;;5.90;2.08;;;;;;;;;;5073816;28;20105;-84
2021/08/17 09:37:46;;;;;;;5.45;1.58;;;;;;;;;;5075044;28;20099;-78
2021/08/17 09:40:13;;;;;;;5.25;2.05;;;;;;;;;;5075103;28;20021;-78
2021/08/17 09:42:38;;;;;;;4.78;2.28;;;;;;;;;;5073964;28;20384;-77
2021/08/17 09:45:09;;;;;;;6.05;1.35;;;;;;;;;;5073850;28;20032;-79
2021/08/17 09:47:37;;;;;;;11.60;2.33;;;;;;;;;;5073573;28;20115;-76
2021/08/17 09:50:24;;;;;;;3.03;1.52;;;;;;;;;;5074925;28;20016;-75
2021/08/17 09:53:03;;;;;;;5.63;1.83;;;;;;;;;;5074691;28;20123;-76
2021/08/17 09:55:29;;;;;;;9.18;2.08;;;;;;;;;;5074762;28;20454;-76
2021/08/17 09:58:30;;;;;;;5.15;1.15;;;;;;;;;;5073502;28;20025;-76
2021/08/17 10:00:59;;;;;;;5.45;1.38;;;;;;;;;;5073347;28;20103;-76
2021/08/17 10:03:26;;;;;;;5.57;1.52;;;;;;;;;;5073185;28;20025;-77
2021/08/17 10:05:51;;;;;;;6.35;1.65;;;;;;;;;;5074420;28;20030;-76
2021/08/17 10:08:18;;;;;;;6.68;1.27;;;;;;;;;;5074360;28;20025;-78
2021/08/17 10:10:46;;;;;;;5.20;1.48;;;;;;;;;;5073136;28;20480;-77
2021/08/17 10:13:15;;;;;;;3.92;1.23;;;;;;;;;;5074370;28;20028;-75
2021/08/17 10:15:45;;;;;;;4.00;0.98;;;;;;;;;;5074491;28;20028;-81
2021/08/17 10:18:13;;;;;;;5.35;1.10;;;;;;;;;;5075230;28;20028;-79
2021/08/17 10:20:42;;;;;;;2.58;0.52;;;;;;;;;;5072459;28;20033;-78
2021/08/17 10:23:08;;;;;;;;;;;;;;;;;;5073246;28;20060;-78
2021/08/17 10:25:52;;;;;;;3.97;0.90;;;;;;;;;;5072686;28;19967;-84
2021/08/17 10:28:32;;;;;;;4.22;1.20;;;;;;;;;;5074229;28;20025;-78
2021/08/17 10:31:26;;;;;;;3.95;1.58;;;;;;;;;;5074162;28;20035;-78
2021/08/17 10:34:11;;;;;;;4.45;1.98;;;;;;;;;;5072657;28;20373;-79
2021/08/17 10:36:44;;;;;;;6.85;1.27;;;;;;;;;;5072570;28;20039;-77
2021/08/17 10:39:16;;;;;;;5.30;2.03;;;;;;;;;;5073939;28;20467;-77
2021/08/17 10:41:45;;;;;;;4.55;1.35;;;;;;;;;;5072531;28;20484;-77
2021/08/17 10:44:19;;;;;;;4.65;1.90;;;;;;;;;;5073791;28;20032;-79
2021/08/17 10:46:48;;;;;;;2.72;1.00;;;;;;;;;;5073866;28;20056;-78
2021/08/17 10:49:26;;;;;;;3.13;0.98;;;;;;;;;;5073804;28;20059;-76
2021/08/17 10:51:54;;;;;;;5.18;2.05;;;;;;;;;;5074281;28;20093;-78
2021/08/17 10:54:19;;;;;;;3.53;1.38;;;;;;;;;;5073571;28;20048;-85
2021/08/17 10:56:49;;;;;;;4.47;0.70;;;;;;;;;;5072185;28;20071;-75
2021/08/17 10:59:39;;;;;;;5.90;2.47;;;;;;;;;;5072316;28;20029;-77
2021/08/17 11:02:07;;;;;;;6.75;1.63;;;;;;;;;;5073638;28;20099;-76
2021/08/17 11:04:43;;;;;;;4.82;1.10;;;;;;;;;;5073569;28;20032;-77
2021/08/17 11:07:32;;;;;;;6.60;3.00;;;;;;;;;;5073994;28;20052;-76
2021/08/17 11:10:00;;;;;;;6.10;1.10;;;;;;;;;;5073382;28;20033;-75
2021/08/17 11:12:34;;;;;;;7.53;2.40;;;;;;;;;;5072168;28;20025;-76
2021/08/17 11:15:00;;;;;;;4.82;1.98;;;;;;;;;;5073657;28;20052;-77
2021/08/17 11:17:25;;;;;;;6.95;2.10;;;;;;;;;;5073683;28;20020;-76
2021/08/17 11:19:52;;;;;;;9.18;1.55;;;;;;;;;;5073325;28;20020;-76
2021/08/17 11:22:27;;;;;;;6.07;1.30;;;;;;;;;;5073259;28;20040;-76
2021/08/17 11:24:59;;;;;;;4.85;1.17;;;;;;;;;;5073172;28;20520;-76
2021/08/17 11:27:28;;;;;;;5.05;1.08;;;;;;;;;;5073781;28;20039;-76
2021/08/17 11:29:56;;;;;;;6.22;2.00;;;;;;;;;;5073295;28;20029;-76
2021/08/17 11:32:43;;;;;;;4.57;2.33;;;;;;;;;;5075896;28;20025;-76
2021/08/17 11:35:19;;;;;;;;;;;;;;;;;;5077707;28;20025;-76
2021/08/17 11:37:47;;;;;;;5.70;1.73;;;;;;;;;;5077234;28;19912;-76
2021/08/17 11:40:18;;;;;;;6.82;2.25;;;;;;;;;;5075997;28;20024;-76
2021/08/17 11:42:46;;;;;;;11.25;3.30;;;;;;;;;;5077302;28;20043;-76
2021/08/17 11:45:18;;;;;;;8.73;2.97;;;;;;;;;;5077238;28;20028;-76
2021/08/17 11:47:45;;;;;;;6.10;1.00;;;;;;;;;;5077394;28;20029;-76
2021/08/17 11:50:13;;;;;;;6.68;2.60;;;;;;;;;;5077140;28;20377;-77
2021/08/17 11:52:44;;;;;;;5.78;1.17;;;;;;;;;;5076994;28;20539;-76
2021/08/17 11:55:11;;;;;;;7.85;1.38;;;;;;;;;;5077135;28;20025;-76
2021/08/17 11:57:48;;;;;;;6.50;2.45;;;;;;;;;;5076891;28;20028;-76
2021/08/17 12:00:15;;;;;;;6.60;1.42;;;;;;;;;;5077163;28;20020;-77
2021/08/17 12:02:43;;;;;;;10.00;2.75;;;;;;;;;;5076799;28;20106;-76
2021/08/17 12:05:17;;;;;;;13.30;2.38;;;;;;;;;;5076111;28;20518;-76
2021/08/17 12:07:44;;;;;;;6.40;2.05;;;;;;;;;;5077294;28;20520;-76
2021/08/17 12:10:27;;;;;;;9.20;1.23;;;;;;;;;;5076697;28;20027;-77
2021/08/17 12:12:56;;;;;;;6.70;1.08;;;;;;;;;;5076892;28;20484;-75
2021/08/17 12:15:31;;;;;;;5.07;1.75;;;;;;;;;;5075170;28;20036;-75
2021/08/17 12:18:12;;;;;;;5.32;1.40;;;;;;;;;;5076600;28;20024;-77
2021/08/17 12:21:19;;;;;;;5.00;1.27;;;;;;;;;;5076937;28;20032;-77
2021/08/17 12:23:47;;;;;;;4.80;1.63;;;;;;;;;;5067342;28;20500;-75
2021/08/17 12:26:19;;;;;;;4.18;1.50;;;;;;;;;;5075022;28;20127;-75
2021/08/17 12:28:48;;;;;;;4.03;1.02;;;;;;;;;;5075193;28;20484;-76
2021/08/17 12:31:18;;;;;;;9.27;2.50;;;;;;;;;;5076577;28;20027;-82
2021/08/17 12:33:51;;;;;;;6.32;1.65;;;;;;;;;;5076208;28;20035;-80
2021/08/17 12:36:19;;;;;;;10.02;1.40;;;;;;;;;;5076157;28;20081;-76
2021/08/17 12:38:45;;;;;;;5.40;1.00;;;;;;;;;;5076219;28;20036;-76
2021/08/17 12:41:27;;;;;;;4.60;1.75;;;;;;;;;;5076163;28;20107;-75
2021/08/17 12:43:53;;;;;;;7.13;1.33;;;;;;;;;;5075580;28;20543;-76
2021/08/17 12:46:18;;;;;;;8.90;2.33;;;;;;;;;;5076018;28;20108;-76
2021/08/17 12:48:47;;;;;;;9.90;2.20;;;;;;;;;;5076122;28;20024;-80
2021/08/17 12:51:21;;;;;;;8.23;1.80;;;;;;;;;;5074718;28;20476;-76
2021/08/17 12:53:48;;;;;;;11.15;4.78;;;;;;;;;;5075863;28;20424;-77
2021/08/17 12:56:13;;;;;;;15.20;2.00;;;;;;;;;;5075807;28;20040;-77
2021/08/17 12:58:39;;;;;;;5.78;2.30;;;;;;;;;;5075969;28;20028;-77
2021/08/17 13:01:05;;;;;;;5.82;1.45;;;;;;;;;;5075790;28;20032;-77
2021/08/17 13:03:30;;;;;;;5.50;2.05;;;;;;;;;;5075719;28;20025;-78
2021/08/17 13:05:57;;;;;;;4.50;1.00;;;;;;;;;;5075688;28;20107;-77
2021/08/17 13:08:23;;;;;;;6.93;1.63;;;;;;;;;;5075654;28;20032;-77
2021/08/17 13:10:48;;;;;;;4.75;1.73;;;;;;;;;;5074642;28;20376;-78
2021/08/17 13:13:14;;;;;;;3.10;1.08;;;;;;;;;;5075508;28;20100;-76
2021/08/17 13:15:42;;;;;;;6.28;2.67;;;;;;;;;;5075583;28;20035;-76
2021/08/17 13:18:08;;;;;;;5.30;0.98;;;;;;;;;;5075400;28;20025;-77
2021/08/17 13:20:34;;;;;;;3.65;2.00;;;;;;;;;;5075459;28;20169;-76
2021/08/17 13:23:00;;;;;;;8.05;1.23;;;;;;;;;;5075376;28;20024;-76
2021/08/17 13:25:25;;;;;;;3.35;0.80;;;;;;;;;;5074977;28;20074;-77
2021/08/17 13:27:51;;;;;;;4.97;1.50;;;;;;;;;;5075518;28;20025;-77
2021/08/17 13:30:18;;;;;;;4.75;1.10;;;;;;;;;;5075137;28;20046;-76
2021/08/17 13:32:44;;;;;;;5.47;1.20;;;;;;;;;;5075092;28;20468;-76
2021/08/17 13:35:12;;;;;;;6.43;1.30;;;;;;;;;;5075775;28;20036;-80
2021/08/17 13:37:37;;;;;;;4.90;1.50;;;;;;;;;;5075085;28;20488;-76
2021/08/17 13:40:04;;;;;;;10.60;6.57;;;;;;;;;;5075890;28;20063;-79
2021/08/17 13:42:30;;;;;;;4.05;1.20;;;;;;;;;;5074865;28;20020;-77
2021/08/17 13:44:56;;;;;;;6.90;2.03;;;;;;;;;;5074884;28;20036;-75
2021/08/17 13:47:22;;;;;;;8.07;2.40;;;;;;;;;;5074863;28;20012;-81
2021/08/17 13:49:48;;;;;;;6.85;2.55;;;;;;;;;;5074731;28;20055;-76
2021/08/17 13:52:17;;;;;;;5.82;1.63;;;;;;;;;;5075029;28;20044;-80
2021/08/17 13:54:43;;;;;;;6.00;1.27;;;;;;;;;;5073648;28;20024;-76
2021/08/17 13:57:09;;;;;;;4.18;2.03;;;;;;;;;;5074406;28;20036;-77
2021/08/17 13:59:37;;;;;;;5.97;1.17;;;;;;;;;;5073298;28;20028;-76
2021/08/17 14:02:02;;;;;;;11.75;2.38;;;;;;;;;;5074571;28;20595;-77
2021/08/17 14:04:28;;;;;;;6.95;1.70;;;;;;;;;;5074485;28;20107;-77
2021/08/17 14:06:54;;;;;;;5.95;1.02;;;;;;;;;;5074382;28;20028;-76
2021/08/17 14:09:19;;;;;;;5.40;1.90;;;;;;;;;;5072917;28;20107;-76
2021/08/17 14:11:45;;;;;;;17.65;1.90;;;;;;;;;;5073224;28;20024;-76
2021/08/17 14:14:13;;;;;;;8.90;1.95;;;;;;;;;;5074772;28;20028;-76
2021/08/17 14:16:41;;;;;;;13.70;1.98;;;;;;;;;;5074282;28;20029;-78
2021/08/17 14:19:07;;;;;;;5.85;0.90;;;;;;;;;;5074191;28;20052;-77
2021/08/17 14:21:34;;;;;;;10.35;1.20;;;;;;;;;;5074271;28;20102;-76
2021/08/17 14:24:00;;;;;;;3.50;1.17;;;;;;;;;;5074111;28;20024;-77
2021/08/17 14:26:34;;;;;;;5.95;2.17;;;;;;;;;;5074563;28;20439;-77
2021/08/17 14:29:01;;;;;;;4.22;1.27;;;;;;;;;;5074269;28;20047;-76
2021/08/17 14:31:28;;;;;;;4.03;1.17;;;;;;;;;;5073922;28;20027;-76
2021/08/17 14:33:54;;;;;;;6.00;1.55;;;;;;;;;;5072796;28;20103;-76
2021/08/17 14:36:20;;;;;;;13.57;2.67;;;;;;;;;;5073773;28;20358;-79
2021/08/17 14:38:47;;;;;;;13.45;2.58;;;;;;;;;;5073792;28;20029;-77
2021/08/17 14:41:13;;;;;;;4.88;1.38;;;;;;;;;;5073876;28;20031;-82
2021/08/17 14:43:39;;;;;;;11.93;1.02;;;;;;;;;;5072567;28;20028;-77
2021/08/17 14:46:05;;;;;;;8.88;1.63;;;;;;;;;;5073853;28;20027;-77